Time;durP1;ratioP1;P1;durP2;ratioP2;P2;SDS_P1;SDS_P2;PMS_P1;PMS_P2;Temp;Humidity;BMP_temperature;BMP_pressure;BME280_temperature;BME280_humidity;BME280_pressure;Samples;Min_cycle;Max_cycle;Signal;HPM_P1;HPM_P2
2022/11/20 00:01:14;;;;;;;4.20;2.03;;;6.10;99.90;;;;;;5092601;28;20039;-78
2022/11/20 00:03:40;;;;;;;3.50;1.70;;;6.00;99.90;;;;;;5093176;28;20020;-78
2022/11/20 00:06:08;;;;;;;3.55;2.20;;;6.00;99.90;;;;;;5092639;28;20032;-78
2022/11/20 00:08:34;;;;;;;3.47;2.05;;;6.10;99.90;;;;;;5092610;28;20020;-78
2022/11/20 00:11:21;;;;;;;3.97;1.90;;;6.20;99.90;;;;;;5092773;28;20032;-77
2022/11/20 00:13:49;;;;;;;1.98;1.63;;;6.20;99.90;;;;;;5092335;28;20090;-78
2022/11/20 00:16:18;;;;;;;2.13;1.70;;;6.30;99.90;;;;;;5092404;28;20020;-77
2022/11/20 00:18:44;;;;;;;2.42;1.73;;;6.20;99.90;;;;;;5092472;28;20077;-78
2022/11/20 00:21:18;;;;;;;2.53;1.55;;;6.20;99.90;;;;;;5090995;28;20039;-77
2022/11/20 00:23:45;;;;;;;1.88;1.60;;;6.10;99.90;;;;;;5090973;28;20122;-77
2022/11/20 00:26:13;;;;;;;1.63;1.52;;;6.10;99.90;;;;;;5087273;28;20501;-77
2022/11/20 00:28:39;;;;;;;3.20;1.65;;;6.20;99.90;;;;;;5072011;28;20017;-77
2022/11/20 00:31:13;;;;;;;2.72;1.52;;;6.10;99.90;;;;;;5087573;28;20021;-77
2022/11/20 00:33:39;;;;;;;2.40;1.92;;;6.10;99.90;;;;;;5072368;28;20048;-77
2022/11/20 00:36:08;;;;;;;2.25;1.73;;;6.10;99.90;;;;;;5072199;28;20082;-77
2022/11/20 00:38:35;;;;;;;2.35;1.75;;;6.20;99.90;;;;;;5072268;28;20029;-78
2022/11/20 00:41:04;;;;;;;4.80;1.52;;;6.00;99.90;;;;;;5074515;28;20493;-77
2022/11/20 00:43:30;;;;;;;2.28;1.67;;;6.10;99.90;;;;;;5112745;28;20023;-77
2022/11/20 00:46:20;;;;;;;2.70;1.73;;;6.10;99.90;;;;;;5112418;28;20020;-77
2022/11/20 00:48:45;;;;;;;2.28;1.52;;;6.10;99.90;;;;;;5112906;28;20019;-77
2022/11/20 00:51:13;;;;;;;1.52;1.25;;;6.10;99.90;;;;;;5092265;28;20555;-77
2022/11/20 00:53:39;;;;;;;1.88;1.45;;;6.10;99.90;;;;;;5092541;28;20081;-77
2022/11/20 00:56:09;;;;;;;1.95;1.58;;;6.00;99.90;;;;;;5092298;28;20031;-77
2022/11/20 00:58:36;;;;;;;1.98;1.60;;;5.90;99.90;;;;;;5092047;28;20047;-77
2022/11/20 01:01:08;;;;;;;2.08;1.52;;;5.90;99.90;;;;;;5090370;28;20028;-78
2022/11/20 01:03:35;;;;;;;2.20;1.85;;;5.90;99.90;;;;;;5092615;28;20020;-77
2022/11/20 01:06:06;;;;;;;3.92;2.17;;;5.90;99.90;;;;;;5090470;28;20061;-77
2022/11/20 01:08:33;;;;;;;3.25;1.90;;;5.80;99.90;;;;;;5092151;28;20024;-77
2022/11/20 01:11:13;;;;;;;4.18;2.47;;;5.80;99.90;;;;;;5092135;28;20477;-78
2022/11/20 01:13:40;;;;;;;3.67;1.92;;;5.70;99.90;;;;;;5092092;28;20107;-77
2022/11/20 01:16:13;;;;;;;3.45;1.90;;;5.70;99.90;;;;;;5091842;28;20126;-77
2022/11/20 01:18:40;;;;;;;2.47;1.65;;;5.70;99.90;;;;;;5092243;28;20029;-77
2022/11/20 01:21:15;;;;;;;2.47;1.60;;;5.60;99.90;;;;;;5090081;28;20032;-77
2022/11/20 01:23:42;;;;;;;3.33;1.98;;;5.60;99.90;;;;;;5092020;28;20043;-77
2022/11/20 01:26:11;;;;;;;1.98;1.42;;;5.60;99.90;;;;;;5086100;28;20135;-77
2022/11/20 01:28:37;;;;;;;2.83;1.58;;;5.60;99.90;;;;;;5071358;28;20110;-77
2022/11/20 01:31:21;;;;;;;2.65;1.70;;;5.60;99.90;;;;;;5071496;28;20108;-77
2022/11/20 01:33:50;;;;;;;3.58;1.60;;;5.60;99.90;;;;;;5071489;28;20094;-77
2022/11/20 01:36:17;;;;;;;2.13;1.58;;;5.50;99.90;;;;;;5071668;28;20071;-77
2022/11/20 01:38:43;;;;;;;2.28;1.38;;;5.50;99.90;;;;;;5090026;28;20017;-77
2022/11/20 01:41:10;;;;;;;3.22;1.65;;;5.40;99.90;;;;;;5079364;28;20033;-77
2022/11/20 01:43:36;;;;;;;1.88;1.20;;;5.50;99.90;;;;;;5116137;28;20023;-77
2022/11/20 01:46:17;;;;;;;2.10;1.20;;;5.40;99.90;;;;;;5115266;28;20028;-77
2022/11/20 01:48:52;;;;;;;2.75;1.52;;;5.40;99.90;;;;;;5114611;28;20035;-77
2022/11/20 01:51:26;;;;;;;1.67;1.42;;;5.30;99.90;;;;;;5095979;28;20050;-77
2022/11/20 01:53:55;;;;;;;1.35;1.08;;;5.30;99.90;;;;;;5095278;28;20028;-77
2022/11/20 01:56:22;;;;;;;1.15;0.85;;;5.30;99.90;;;;;;5093594;28;20028;-77
2022/11/20 01:58:54;;;;;;;2.17;1.15;;;5.30;99.90;;;;;;5093971;28;20021;-77
2022/11/20 02:01:21;;;;;;;1.05;0.82;;;5.20;99.90;;;;;;5093474;28;20024;-77
2022/11/20 02:03:47;;;;;;;1.67;0.90;;;5.30;99.90;;;;;;5095310;28;20028;-77
2022/11/20 02:06:22;;;;;;;0.90;0.85;;;5.20;99.90;;;;;;5093616;28;20020;-77
2022/11/20 02:08:48;;;;;;;1.50;1.10;;;5.20;99.90;;;;;;5094984;28;20031;-77
2022/11/20 02:11:14;;;;;;;1.25;1.10;;;5.10;99.90;;;;;;5094282;28;20027;-77
2022/11/20 02:13:43;;;;;;;1.58;1.13;;;5.10;99.90;;;;;;5095033;28;20028;-77
2022/11/20 02:16:15;;;;;;;1.83;1.20;;;5.10;99.90;;;;;;5094612;28;20016;-77
2022/11/20 02:18:42;;;;;;;0.93;0.93;;;5.10;99.90;;;;;;5094900;28;20028;-77
2022/11/20 02:21:14;;;;;;;2.03;1.00;;;5.00;99.90;;;;;;5094380;28;20024;-77
2022/11/20 02:24:08;;;;;;;1.45;0.93;;;5.00;99.90;;;;;;5094521;28;20033;-77
2022/11/20 02:26:48;;;;;;;1.20;1.10;;;5.00;99.90;;;;;;5086386;28;20075;-77
2022/11/20 02:29:16;;;;;;;4.07;1.20;;;4.90;99.90;;;;;;5074033;28;20027;-77
2022/11/20 02:31:43;;;;;;;1.83;1.02;;;4.80;99.90;;;;;;5074127;28;20112;-77
2022/11/20 02:34:09;;;;;;;1.08;0.98;;;4.80;99.90;;;;;;5074386;28;20028;-77
2022/11/20 02:36:38;;;;;;;1.10;0.93;;;4.80;99.90;;;;;;5074172;28;20478;-77
2022/11/20 02:39:04;;;;;;;0.70;0.70;;;4.80;99.90;;;;;;5074101;28;20040;-77
2022/11/20 02:41:35;;;;;;;1.10;0.77;;;4.80;99.90;;;;;;5084674;28;20023;-77
2022/11/20 02:44:01;;;;;;;2.13;1.08;;;4.80;99.90;;;;;;5114731;28;20027;-77
2022/11/20 02:46:27;;;;;;;2.47;0.80;;;4.80;99.90;;;;;;5114479;28;20034;-77
2022/11/20 02:48:52;;;;;;;0.98;0.73;;;4.90;99.90;;;;;;5113015;28;20023;-77
2022/11/20 02:51:18;;;;;;;2.90;1.23;;;4.90;99.90;;;;;;5094980;28;20024;-77
2022/11/20 02:53:44;;;;;;;2.28;1.08;;;4.80;99.90;;;;;;5093973;28;20089;-77
2022/11/20 02:56:10;;;;;;;1.35;1.10;;;4.80;99.90;;;;;;5094275;28;20054;-77
2022/11/20 02:58:35;;;;;;;1.35;1.15;;;4.80;99.90;;;;;;5092672;28;20024;-77
2022/11/20 03:01:01;;;;;;;1.10;1.00;;;4.70;99.90;;;;;;5093893;28;20078;-77
2022/11/20 03:03:27;;;;;;;1.40;1.10;;;4.70;99.90;;;;;;5094051;28;20479;-77
2022/11/20 03:05:52;;;;;;;1.92;1.20;;;4.70;99.90;;;;;;5094146;28;20493;-77
2022/11/20 03:08:18;;;;;;;2.80;1.35;;;4.60;99.90;;;;;;5093876;28;20473;-77
2022/11/20 03:10:43;;;;;;;2.17;1.25;;;4.60;99.90;;;;;;5092435;28;20448;-77
2022/11/20 03:13:09;;;;;;;1.00;0.90;;;4.60;99.90;;;;;;5093362;28;20436;-77
2022/11/20 03:15:36;;;;;;;1.42;1.00;;;4.60;99.90;;;;;;5093585;28;20470;-77
2022/11/20 03:18:03;;;;;;;1.70;0.90;;;4.60;99.90;;;;;;5093582;28;20114;-77
2022/11/20 03:20:28;;;;;;;0.82;0.82;;;4.60;99.90;;;;;;5093668;28;20028;-77
2022/11/20 03:22:54;;;;;;;1.17;1.00;;;4.60;99.90;;;;;;5093348;28;20020;-77
2022/11/20 03:25:21;;;;;;;1.15;1.05;;;4.70;99.90;;;;;;5093157;28;20097;-77
2022/11/20 03:27:46;;;;;;;0.90;0.90;;;4.70;99.90;;;;;;5073602;28;20029;-77
2022/11/20 03:30:13;;;;;;;1.00;0.90;;;4.60;99.90;;;;;;5073053;28;20478;-77
2022/11/20 03:32:38;;;;;;;1.15;0.82;;;4.50;99.90;;;;;;5073018;28;20020;-77
2022/11/20 03:35:04;;;;;;;0.95;0.80;;;4.50;99.90;;;;;;5073278;28;20055;-77
2022/11/20 03:37:30;;;;;;;1.30;1.20;;;4.40;99.90;;;;;;5072835;28;20044;-77
2022/11/20 03:39:56;;;;;;;0.93;0.82;;;4.40;99.90;;;;;;5072733;28;20477;-77
2022/11/20 03:45:06;;;;;;;1.00;0.90;;;4.50;99.90;;;;;;5113499;28;20038;-77
2022/11/20 03:47:31;;;;;;;1.25;1.15;;;4.40;99.90;;;;;;5113460;28;20110;-77
2022/11/20 03:49:57;;;;;;;1.23;1.00;;;4.40;99.90;;;;;;5104996;28;20461;-77
2022/11/20 03:52:23;;;;;;;1.67;1.10;;;4.40;99.90;;;;;;5092853;28;20020;-77
2022/11/20 03:54:48;;;;;;;1.27;1.00;;;4.30;99.90;;;;;;5093202;28;20093;-77
2022/11/20 03:57:14;;;;;;;0.85;0.85;;;4.30;99.90;;;;;;5092962;28;20103;-77
2022/11/20 03:59:40;;;;;;;1.67;1.00;;;4.30;99.90;;;;;;5090930;28;20032;-77
2022/11/20 04:02:05;;;;;;;1.10;1.00;;;4.20;99.90;;;;;;5092560;28;20574;-77
2022/11/20 04:04:31;;;;;;;1.25;1.00;;;4.20;99.90;;;;;;5092762;28;20436;-77
2022/11/20 04:06:57;;;;;;;1.30;1.13;;;4.10;99.90;;;;;;5092796;28;20020;-77
2022/11/20 04:09:22;;;;;;;1.50;1.23;;;4.20;99.90;;;;;;5092980;28;20510;-77
2022/11/20 04:11:48;;;;;;;1.23;0.90;;;4.10;99.90;;;;;;5091166;28;20028;-77
2022/11/20 04:14:15;;;;;;;1.17;1.08;;;4.20;99.90;;;;;;5092474;28;20020;-77
2022/11/20 04:16:41;;;;;;;1.38;1.13;;;4.20;99.90;;;;;;5091271;28;20177;-77
2022/11/20 04:19:11;;;;;;;1.52;1.05;;;4.20;99.90;;;;;;5092598;28;20054;-77
2022/11/20 04:21:37;;;;;;;1.48;0.98;;;4.10;99.90;;;;;;5090999;28;20028;-77
2022/11/20 04:24:03;;;;;;;1.15;1.00;;;4.10;99.90;;;;;;5091922;28;20044;-77
2022/11/20 04:26:30;;;;;;;1.40;1.10;;;4.10;99.90;;;;;;5085047;28;20036;-77
2022/11/20 04:28:56;;;;;;;1.73;1.20;;;4.20;99.90;;;;;;5072508;28;20092;-77
2022/11/20 04:31:27;;;;;;;1.30;1.20;;;4.20;99.90;;;;;;5070816;28;20474;-77
2022/11/20 04:33:52;;;;;;;1.42;1.33;;;4.30;99.90;;;;;;5072068;28;20103;-77
2022/11/20 04:36:23;;;;;;;1.15;1.05;;;4.10;99.90;;;;;;5072259;28;20113;-77
2022/11/20 04:39:01;;;;;;;1.67;1.40;;;4.00;99.90;;;;;;5072058;28;20048;-77
2022/11/20 04:41:32;;;;;;;1.25;1.15;;;4.00;99.90;;;;;;5081369;28;20032;-77
2022/11/20 04:44:04;;;;;;;;;;;4.00;99.90;;;;;;5112640;28;20024;-77
2022/11/20 04:46:41;;;;;;;1.73;1.55;;;4.00;99.90;;;;;;5111180;28;19930;-77
2022/11/20 04:49:07;;;;;;;2.05;1.40;;;4.00;99.90;;;;;;5111216;28;20050;-77
2022/11/20 04:51:34;;;;;;;1.80;1.40;;;3.90;99.90;;;;;;5091836;28;20111;-77
2022/11/20 04:54:00;;;;;;;1.80;1.40;;;3.90;99.90;;;;;;5092402;28;20028;-77
2022/11/20 04:56:25;;;;;;;2.58;1.63;;;3.90;99.90;;;;;;5090941;28;20031;-77
2022/11/20 04:58:51;;;;;;;1.40;1.30;;;3.90;99.90;;;;;;5092360;28;20095;-77
2022/11/20 05:01:22;;;;;;;2.15;1.88;;;3.90;99.90;;;;;;5092156;28;20056;-77
2022/11/20 05:03:48;;;;;;;2.83;1.70;;;3.80;99.90;;;;;;5092342;28;20023;-77
2022/11/20 05:06:18;;;;;;;2.25;1.48;;;3.80;99.90;;;;;;5090217;28;20261;-77
2022/11/20 05:08:44;;;;;;;1.60;1.10;;;3.70;99.90;;;;;;5092142;28;20020;-77
2022/11/20 05:11:12;;;;;;;2.08;1.50;;;3.70;99.90;;;;;;5092024;28;20031;-77
2022/11/20 05:13:38;;;;;;;1.92;1.38;;;3.70;99.90;;;;;;5096157;28;20028;-77
2022/11/20 05:16:13;;;;;;;1.33;1.10;;;3.70;99.90;;;;;;5096063;28;20047;-77
2022/11/20 05:18:39;;;;;;;1.40;1.30;;;3.70;99.90;;;;;;5095801;28;20024;-77
2022/11/20 05:21:05;;;;;;;2.42;1.70;;;3.60;99.90;;;;;;5095706;28;20020;-77
2022/11/20 05:23:32;;;;;;;1.45;1.30;;;3.60;99.90;;;;;;5095605;28;20032;-77
2022/11/20 05:25:58;;;;;;;1.88;1.23;;;3.70;99.90;;;;;;5093008;28;20059;-77
2022/11/20 05:28:25;;;;;;;1.38;1.17;;;3.70;99.90;;;;;;5075801;28;20091;-77
2022/11/20 05:30:51;;;;;;;1.38;1.27;;;3.60;99.90;;;;;;5075340;28;20505;-77
2022/11/20 05:33:17;;;;;;;2.55;1.20;;;3.60;99.90;;;;;;5075024;28;20058;-77
2022/11/20 05:35:43;;;;;;;1.45;1.20;;;3.60;99.90;;;;;;5075197;28;20052;-77
2022/11/20 05:38:09;;;;;;;1.85;1.25;;;3.60;99.90;;;;;;5075329;28;20430;-77
2022/11/20 05:40:35;;;;;;;1.30;1.05;;;3.50;99.90;;;;;;5073871;28;20424;-77
2022/11/20 05:43:01;;;;;;;2.20;1.35;;;3.50;99.90;;;;;;5111103;28;20019;-77
2022/11/20 05:45:27;;;;;;;2.72;1.40;;;3.50;99.90;;;;;;5115839;28;20023;-77
2022/11/20 05:47:52;;;;;;;4.22;1.48;;;3.50;99.90;;;;;;5114075;28;20024;-77
2022/11/20 05:50:18;;;;;;;1.30;1.20;;;3.40;99.90;;;;;;5104725;28;20016;-77
2022/11/20 05:52:43;;;;;;;1.75;1.33;;;3.40;99.90;;;;;;5093828;28;20517;-77
2022/11/20 05:55:09;;;;;;;1.10;1.00;;;3.40;99.90;;;;;;5095292;28;20032;-77
2022/11/20 05:57:35;;;;;;;0.98;0.93;;;3.50;99.90;;;;;;5095681;28;20027;-77
2022/11/20 06:00:02;;;;;;;0.82;0.82;;;3.40;99.90;;;;;;5094920;28;20028;-77
2022/11/20 06:02:28;;;;;;;1.13;1.00;;;3.40;99.90;;;;;;5094973;28;20045;-77
2022/11/20 06:04:53;;;;;;;1.20;1.10;;;3.40;99.90;;;;;;5095023;28;20482;-78
2022/11/20 06:07:19;;;;;;;1.50;1.05;;;3.40;99.90;;;;;;5094808;28;20508;-77
2022/11/20 06:09:44;;;;;;;1.48;1.35;;;3.30;99.90;;;;;;5095181;28;20031;-77
2022/11/20 06:12:10;;;;;;;1.85;1.10;;;3.30;99.90;;;;;;5094737;28;20020;-77
2022/11/20 06:14:36;;;;;;;1.10;1.00;;;3.30;99.90;;;;;;5093170;28;20112;-77
2022/11/20 06:17:01;;;;;;;1.15;0.90;;;3.30;99.90;;;;;;5094888;28;20020;-77
2022/11/20 06:19:27;;;;;;;1.00;0.90;;;3.30;99.90;;;;;;5094965;28;20385;-77
2022/11/20 06:21:53;;;;;;;1.33;1.13;;;3.40;99.90;;;;;;5094657;28;20373;-78
2022/11/20 06:24:18;;;;;;;0.80;0.80;;;3.30;99.90;;;;;;5093460;28;20052;-77
2022/11/20 06:26:44;;;;;;;0.93;0.80;;;3.30;99.90;;;;;;5085179;28;20031;-77
2022/11/20 06:29:10;;;;;;;0.80;0.80;;;3.20;99.90;;;;;;5074011;28;20028;-78
2022/11/20 06:31:37;;;;;;;0.80;0.80;;;3.20;99.90;;;;;;5074189;28;20513;-77
2022/11/20 06:34:05;;;;;;;0.77;0.77;;;3.20;99.90;;;;;;5074355;28;20112;-78
2022/11/20 06:36:31;;;;;;;1.17;0.90;;;3.20;99.90;;;;;;5074038;28;20111;-78
2022/11/20 06:38:56;;;;;;;0.90;0.90;;;3.20;99.90;;;;;;5074214;28;20479;-78
2022/11/20 06:41:22;;;;;;;1.08;0.88;;;3.10;99.90;;;;;;5082456;28;20493;-78
2022/11/20 06:43:49;;;;;;;0.90;0.90;;;3.20;99.90;;;;;;5113472;28;20389;-78
2022/11/20 06:46:18;;;;;;;1.02;0.95;;;3.20;99.90;;;;;;5114553;27;20035;-78
2022/11/20 06:48:45;;;;;;;0.95;0.93;;;3.10;99.90;;;;;;5113312;28;20107;-78
2022/11/20 06:51:11;;;;;;;0.88;0.88;;;3.10;99.90;;;;;;5096103;28;20031;-78
2022/11/20 06:53:37;;;;;;;1.00;0.73;;;3.20;99.90;;;;;;5092778;28;20532;-78
2022/11/20 06:56:03;;;;;;;1.05;1.00;;;3.20;99.90;;;;;;5094362;28;20101;-78
2022/11/20 06:58:31;;;;;;;1.40;1.25;;;3.20;99.90;;;;;;5094123;28;20085;-78
2022/11/20 07:01:02;;;;;;;1.58;1.20;;;3.20;99.90;;;;;;5093635;28;20028;-78
2022/11/20 07:03:27;;;;;;;1.63;1.08;;;3.20;99.90;;;;;;5094094;28;20020;-78
2022/11/20 07:05:57;;;;;;;1.33;1.17;;;3.20;99.90;;;;;;5093750;28;20069;-78
2022/11/20 07:08:24;;;;;;;1.20;1.02;;;3.20;99.90;;;;;;5093584;28;20047;-78
2022/11/20 07:10:50;;;;;;;1.40;1.30;;;3.20;99.90;;;;;;5093666;28;20028;-78
2022/11/20 07:13:15;;;;;;;1.90;1.35;;;3.20;99.90;;;;;;5093688;28;20594;-78
2022/11/20 07:15:41;;;;;;;2.67;1.55;;;3.10;99.90;;;;;;5091961;28;20562;-78
2022/11/20 07:18:07;;;;;;;2.13;1.67;;;3.20;99.90;;;;;;5093736;28;20031;-78
2022/11/20 07:20:32;;;;;;;3.97;2.00;;;3.10;99.90;;;;;;5093637;28;20032;-78
2022/11/20 07:22:58;;;;;;;2.92;2.30;;;3.20;99.90;;;;;;5093636;28;20069;-78
2022/11/20 07:25:25;;;;;;;5.97;2.60;;;3.30;99.90;;;;;;5093310;28;20047;-78
2022/11/20 07:27:50;;;;;;;4.45;2.38;;;3.50;99.90;;;;;;5074949;28;20085;-78
2022/11/20 07:30:17;;;;;;;4.32;2.60;;;3.70;99.90;;;;;;5072687;28;20473;-78
2022/11/20 07:32:42;;;;;;;4.63;2.97;;;3.80;99.90;;;;;;5071983;28;20104;-78
2022/11/20 07:35:08;;;;;;;4.22;3.42;;;3.90;99.90;;;;;;5072931;28;20463;-78
2022/11/20 07:37:34;;;;;;;5.05;3.58;;;4.00;99.90;;;;;;5073363;28;20032;-78
2022/11/20 07:40:00;;;;;;;5.13;3.38;;;4.10;99.90;;;;;;5071334;28;20098;-78
2022/11/20 07:42:26;;;;;;;4.70;3.20;;;4.30;99.90;;;;;;5097777;28;20427;-78
2022/11/20 07:44:51;;;;;;;4.10;2.97;;;4.40;99.90;;;;;;5113034;28;20082;-78
2022/11/20 07:47:17;;;;;;;6.07;3.92;;;4.50;99.90;;;;;;5113395;28;20041;-77
2022/11/20 07:49:42;;;;;;;4.72;3.35;;;4.50;99.90;;;;;;5107102;28;20421;-77
2022/11/20 07:52:08;;;;;;;6.28;4.00;;;4.50;99.90;;;;;;5093139;28;20389;-77
2022/11/20 07:54:34;;;;;;;5.78;4.10;;;4.40;99.90;;;;;;5092728;28;20414;-78
2022/11/20 07:56:59;;;;;;;7.35;4.40;;;4.40;99.90;;;;;;5092712;28;20028;-77
2022/11/20 07:59:25;;;;;;;5.57;4.15;;;4.60;99.90;;;;;;5092519;28;20028;-78
2022/11/20 08:01:51;;;;;;;5.93;3.60;;;4.70;99.90;;;;;;5092945;28;20489;-77
2022/11/20 08:04:16;;;;;;;5.43;4.03;;;4.80;99.90;;;;;;5092851;28;20073;-77
2022/11/20 08:06:42;;;;;;;4.43;3.65;;;4.70;99.90;;;;;;5093047;28;20020;-77
2022/11/20 08:09:08;;;;;;;5.80;3.30;;;4.80;99.90;;;;;;5092608;28;20420;-77
2022/11/20 08:14:18;;;;;;;4.50;3.22;;;4.90;99.90;;;;;;5092170;28;20039;-77
2022/11/20 08:16:47;;;;;;;3.97;3.30;;;4.90;99.90;;;;;;5092729;28;20389;-77
2022/11/20 08:19:18;;;;;;;4.00;2.70;;;5.00;99.90;;;;;;5091179;28;20024;-78
2022/11/20 08:21:44;;;;;;;3.65;2.72;;;5.10;99.90;;;;;;5092619;28;20024;-77
2022/11/20 08:24:10;;;;;;;4.28;2.50;;;5.20;99.90;;;;;;5092223;28;20044;-77
2022/11/20 08:26:37;;;;;;;2.92;2.47;;;5.30;99.90;;;;;;5084198;28;20017;-77
2022/11/20 08:29:04;;;;;;;3.47;2.58;;;5.50;99.90;;;;;;5072382;28;20099;-77
2022/11/20 08:31:30;;;;;;;2.20;2.00;;;5.70;99.90;;;;;;5087466;28;20021;-77
2022/11/20 08:33:56;;;;;;;3.60;2.47;;;5.70;99.90;;;;;;5072469;28;20028;-77
2022/11/20 08:36:23;;;;;;;4.28;2.00;;;5.50;99.90;;;;;;5072374;28;20099;-77
2022/11/20 08:38:54;;;;;;;3.28;2.53;;;5.70;99.90;;;;;;5072497;28;20036;-77
2022/11/20 08:41:30;;;;;;;2.78;2.17;;;5.70;99.90;;;;;;5079444;28;20042;-77
2022/11/20 08:43:58;;;;;;;2.53;2.17;;;5.80;99.90;;;;;;5112692;28;20097;-77
2022/11/20 08:46:28;;;;;;;2.95;2.13;;;5.90;99.90;;;;;;5114719;28;20158;-77
2022/11/20 08:48:54;;;;;;;2.67;2.05;;;6.10;99.90;;;;;;5119571;27;20072;-77
2022/11/20 08:51:20;;;;;;;3.60;2.22;;;6.20;99.90;;;;;;5099318;28;20024;-77
2022/11/20 08:53:48;;;;;;;3.28;2.63;;;6.60;99.90;;;;;;5099243;28;20063;-77
2022/11/20 08:56:14;;;;;;;2.47;2.13;;;7.70;99.90;;;;;;5097195;28;20020;-77
2022/11/20 08:58:40;;;;;;;3.03;2.55;;;11.10;99.90;;;;;;5097573;28;20059;-77
2022/11/20 09:01:06;;;;;;;2.75;2.28;;;11.40;99.90;;;;;;5098773;28;20028;-77
2022/11/20 09:03:31;;;;;;;3.28;2.30;;;10.10;99.90;;;;;;5099094;28;20024;-77
2022/11/20 09:05:59;;;;;;;2.38;2.08;;;9.40;99.90;;;;;;5098864;28;20031;-78
2022/11/20 09:08:25;;;;;;;3.15;2.25;;;11.40;99.90;;;;;;5097614;28;20056;-78
2022/11/20 09:10:55;;;;;;;2.90;2.25;;;13.70;99.90;;;;;;5097068;28;20446;-77
2022/11/20 09:13:22;;;;;;;4.25;2.30;;;11.80;99.90;;;;;;5098461;28;20028;-78
2022/11/20 09:15:52;;;;;;;2.85;2.22;;;10.00;99.90;;;;;;5098579;28;20124;-78
2022/11/20 09:18:17;;;;;;;3.03;2.30;;;9.10;99.90;;;;;;5099132;28;20024;-78
2022/11/20 09:20:44;;;;;;;3.58;2.45;;;8.80;99.90;;;;;;5098667;28;20032;-78
2022/11/20 09:23:09;;;;;;;2.47;2.00;;;8.30;99.90;;;;;;5098614;28;20016;-78
2022/11/20 09:25:35;;;;;;;3.33;2.10;;;8.10;99.90;;;;;;5098260;28;20405;-78
2022/11/20 09:28:00;;;;;;;2.80;1.98;;;8.30;99.90;;;;;;5078765;28;20474;-78
2022/11/20 09:30:27;;;;;;;2.78;2.10;;;8.00;99.90;;;;;;5077936;28;20583;-78
2022/11/20 09:32:52;;;;;;;3.67;2.40;;;7.70;99.90;;;;;;5078634;28;20474;-78
2022/11/20 09:35:20;;;;;;;2.83;2.10;;;7.70;99.90;;;;;;5078190;28;20044;-78
2022/11/20 09:37:45;;;;;;;2.25;2.00;;;7.70;99.90;;;;;;5078361;28;20028;-78
2022/11/20 09:40:23;;;;;;;3.10;2.45;;;7.90;99.90;;;;;;5078048;28;20490;-78
2022/11/20 09:43:09;;;;;;;4.72;2.40;;;8.20;99.90;;;;;;5111066;28;20037;-78
2022/11/20 09:46:06;;;;;;;3.13;2.13;;;8.30;99.90;;;;;;5118650;28;20027;-78
2022/11/20 09:48:35;;;;;;;2.50;1.80;;;8.20;99.90;;;;;;5114176;28;20032;-77
2022/11/20 09:51:22;;;;;;;1.95;1.70;;;8.30;99.90;;;;;;5100031;28;20031;-77
2022/11/20 09:54:17;;;;;;;2.67;2.25;;;8.20;99.90;;;;;;5097079;28;20028;-77
2022/11/20 09:57:10;;;;;;;3.10;1.92;;;8.40;99.90;;;;;;5098290;28;20154;-78
2022/11/20 09:59:40;;;;;;;4.43;2.20;;;8.40;99.90;;;;;;5093997;28;20098;-77
2022/11/20 10:02:26;;;;;;;2.85;2.13;;;8.40;99.90;;;;;;5095074;28;20509;-77
2022/11/20 10:05:13;;;;;;;3.22;2.25;;;8.60;99.90;;;;;;5094785;28;20036;-78
2022/11/20 10:08:11;;;;;;;2.47;2.05;;;8.60;99.90;;;;;;5093778;28;20485;-77
2022/11/20 10:10:58;;;;;;;2.95;1.92;;;8.70;99.90;;;;;;5090435;28;20062;-77
2022/11/20 10:13:39;;;;;;;3.67;2.10;;;8.70;99.90;;;;;;5093155;28;20028;-78
2022/11/20 10:16:17;;;;;;;3.47;2.10;;;8.80;99.90;;;;;;5074364;28;20032;-78
2022/11/20 10:18:53;;;;;;;3.78;2.20;;;8.90;99.90;;;;;;5074682;28;20047;-78
2022/11/20 10:21:52;;;;;;;2.92;2.20;;;8.90;99.90;;;;;;5074247;28;20029;-78
2022/11/20 10:24:48;;;;;;;3.22;2.55;;;8.90;99.90;;;;;;5074053;28;20055;-78
2022/11/20 10:27:38;;;;;;;3.35;2.85;;;9.00;99.90;;;;;;5073972;28;20119;-78
2022/11/20 10:30:16;;;;;;;3.47;2.05;;;8.90;99.90;;;;;;5074256;28;20112;-78
2022/11/20 10:32:46;;;;;;;3.17;2.38;;;9.10;99.90;;;;;;5074385;28;20048;-78
2022/11/20 10:35:21;;;;;;;3.03;2.03;;;9.10;99.90;;;;;;5089729;28;20094;-78
2022/11/20 10:37:53;;;;;;;2.55;2.30;;;9.10;99.90;;;;;;5074271;28;20081;-78
2022/11/20 10:40:45;;;;;;;2.83;2.05;;;9.20;99.90;;;;;;5074190;28;20029;-78
2022/11/20 10:43:31;;;;;;;1.92;1.73;;;9.10;99.90;;;;;;5111425;28;20489;-78
2022/11/20 10:46:03;;;;;;;2.10;1.90;;;9.10;99.90;;;;;;5114514;28;20077;-78
2022/11/20 10:48:31;;;;;;;3.42;2.30;;;9.40;99.90;;;;;;5114735;28;20016;-78
2022/11/20 10:51:08;;;;;;;3.03;1.95;;;9.50;99.90;;;;;;5098026;28;20111;-78
2022/11/20 10:53:53;;;;;;;3.53;2.42;;;9.50;99.90;;;;;;5094302;28;20086;-78
2022/11/20 10:56:37;;;;;;;3.55;2.58;;;9.60;99.90;;;;;;5094319;28;20103;-78
2022/11/20 10:59:28;;;;;;;4.20;2.58;;;9.60;99.90;;;;;;5093768;28;20028;-78
2022/11/20 11:01:54;;;;;;;3.13;2.33;;;9.70;99.90;;;;;;5093928;28;20107;-78
2022/11/20 11:04:28;;;;;;;4.43;3.17;;;9.70;99.90;;;;;;5094399;28;20118;-78
2022/11/20 11:07:15;;;;;;;3.80;2.47;;;9.70;99.90;;;;;;5092280;28;20101;-78
2022/11/20 11:09:49;;;;;;;2.90;2.25;;;9.70;99.90;;;;;;5093904;28;20028;-78
2022/11/20 11:12:15;;;;;;;4.40;2.97;;;9.90;99.90;;;;;;5093664;28;20095;-78
2022/11/20 11:14:49;;;;;;;8.32;3.22;;;10.20;99.90;;;;;;5093827;28;20111;-78
2022/11/20 11:17:32;;;;;;;4.68;2.80;;;10.20;99.90;;;;;;5093514;28;20040;-78
2022/11/20 11:20:21;;;;;;;3.75;2.42;;;10.10;99.90;;;;;;5092469;28;20508;-78
2022/11/20 11:22:54;;;;;;;3.47;2.80;;;10.40;99.90;;;;;;5092029;28;20024;-78
2022/11/20 11:25:20;;;;;;;4.38;2.67;;;10.40;99.90;;;;;;5093205;28;20135;-78
2022/11/20 11:27:47;;;;;;;3.90;2.55;;;10.50;99.90;;;;;;5075090;28;20112;-78
2022/11/20 11:30:16;;;;;;;3.78;2.70;;;10.20;99.90;;;;;;5073300;28;20031;-78
2022/11/20 11:32:42;;;;;;;3.55;2.30;;;10.30;99.90;;;;;;5071760;28;20028;-78
2022/11/20 11:35:26;;;;;;;4.35;2.47;;;10.30;99.90;;;;;;5073374;28;20452;-78
2022/11/20 11:38:04;;;;;;;3.40;2.03;;;10.30;99.90;;;;;;5073011;28;20032;-78
2022/11/20 11:40:33;;;;;;;3.97;2.10;;;10.50;99.90;;;;;;5073032;28;20020;-78
2022/11/20 11:45:04;;;;;;;3.78;2.25;;;10.60;99.90;;;;;;5106912;28;20062;-78
2022/11/20 11:46:02;;;;;;;2.75;1.80;;;11.00;99.90;;;;;;5113269;28;20020;-78
2022/11/20 11:48:27;;;;;;;2.83;1.95;;;10.70;99.90;;;;;;5113362;28;20512;-78
2022/11/20 11:50:53;;;;;;;2.75;2.05;;;10.90;99.90;;;;;;5096977;28;20060;-78
2022/11/20 11:53:26;;;;;;;2.30;1.70;;;11.10;99.90;;;;;;5093258;28;20035;-77
2022/11/20 11:56:09;;;;;;;2.10;1.95;;;11.20;99.90;;;;;;5091577;28;20024;-78
2022/11/20 11:58:51;;;;;;;4.07;2.20;;;11.40;99.90;;;;;;5091425;28;20103;-78
2022/11/20 12:01:40;;;;;;;4.32;2.63;;;11.60;99.90;;;;;;5091207;28;20028;-78
2022/11/20 12:04:17;;;;;;;4.15;2.63;;;11.70;99.90;;;;;;5093090;28;20077;-78
2022/11/20 12:06:47;;;;;;;3.22;2.53;;;11.60;99.90;;;;;;5092696;28;20025;-78
2022/11/20 12:09:13;;;;;;;2.70;1.90;;;11.40;99.90;;;;;;5092730;28;20051;-78
2022/11/20 12:12:03;;;;;;;3.03;2.40;;;11.30;99.90;;;;;;5092656;28;20477;-78
2022/11/20 12:14:39;;;;;;;2.95;2.05;;;11.20;99.90;;;;;;5091018;28;20028;-78
2022/11/20 12:17:05;;;;;;;3.20;1.77;;;11.20;99.90;;;;;;5092916;28;20021;-78
2022/11/20 12:19:34;;;;;;;2.83;2.22;;;11.40;99.90;;;;;;5092756;28;20032;-78
2022/11/20 12:22:29;;;;;;;2.97;1.75;;;11.50;99.90;;;;;;5091966;28;20024;-78
2022/11/20 12:25:10;;;;;;;3.90;2.20;;;11.70;99.90;;;;;;5083894;28;20071;-78
2022/11/20 12:28:12;;;;;;;4.05;2.58;;;12.00;99.90;;;;;;5075922;28;20027;-78
2022/11/20 12:30:56;;;;;;;3.20;2.53;;;12.00;99.90;;;;;;5071912;28;20024;-78
2022/11/20 12:33:38;;;;;;;4.65;2.53;;;11.90;99.90;;;;;;5070929;28;20028;-78
2022/11/20 12:36:29;;;;;;;3.63;2.47;;;11.90;99.90;;;;;;5072138;28;20048;-78
2022/11/20 12:39:08;;;;;;;4.88;3.22;;;11.90;99.90;;;;;;5072420;28;20033;-78
2022/11/20 12:47:54;;;;;;;3.45;1.92;;;11.80;99.90;;;;;;5112543;28;20556;-78
2022/11/20 12:50:32;;;;;;;2.42;1.38;;;11.30;99.90;;;;;;5099539;28;20031;-78
2022/11/20 12:53:07;;;;;;;3.55;2.15;;;11.00;99.90;;;;;;5092527;28;20047;-78
2022/11/20 12:55:51;;;;;;;15.98;9.10;;;10.80;99.90;;;;;;5092422;28;20032;-78
2022/11/20 12:58:46;;;;;;;25.73;15.75;;;10.70;99.90;;;;;;5092383;28;20096;-79
2022/11/20 13:01:47;;;;;;;19.10;12.57;;;10.60;99.90;;;;;;5074359;28;20040;-79
2022/11/20 13:04:44;;;;;;;11.57;8.73;;;10.60;99.90;;;;;;5092267;28;20512;-79
2022/11/20 13:07:14;;;;;;;8.23;7.30;;;10.50;99.90;;;;;;5091945;28;20036;-79
2022/11/20 13:09:47;;;;;;;9.40;7.50;;;10.50;99.90;;;;;;5092095;28;20008;-79
2022/11/20 13:12:19;;;;;;;7.03;6.30;;;10.50;99.90;;;;;;5091787;28;20032;-79
2022/11/20 13:14:53;;;;;;;6.10;5.50;;;10.40;99.90;;;;;;5091953;28;20082;-79
2022/11/20 13:17:40;;;;;;;5.15;4.63;;;10.40;99.90;;;;;;5091611;28;20024;-79
2022/11/20 13:20:13;;;;;;;5.22;4.63;;;10.40;99.90;;;;;;5090961;28;20032;-79
2022/11/20 13:22:48;;;;;;;3.47;3.20;;;10.50;99.90;;;;;;5091856;28;20020;-79
2022/11/20 13:25:22;;;;;;;4.35;3.83;;;10.50;99.90;;;;;;5091640;28;20079;-79